Ana Sayfa
METAR-TAF:

METAR-TAF

Havaalanları :

Wakefield Municipal Airport

Wakefield, Virginia, Amerika Birleşik Devletleri

Enlem: 36-58-53N, Boylam: 077-00-04W, yükseklik: 34 m

Güncel hava durumu gözlemi

Rapor saat 17:54 UTC de 1 saat ve 4 dakika önce yapıldı.
Rüzgar kuzeybatıdan 5 kt
Sıcaklık 9°C
Nem 29%
Basınç 1023 hPa
Görüş mesafesi: 16.1 km
Açık gökyüzü

METAR: KAKQ 071754Z AUTO 31005KT 10SM CLR 09/M08 A3020 RMK AO2 SLP229 T00941078 10100 20044 58022

Saat: 13:58 (18:58 UTC)


TAF: eksik

4.000'den fazla havaalanı için hava durumu gözlemleri ve tahminleri (METAR ve TAF raporları).

Kullanılabilir istasyonlar harita üzerinde sarı ve kırmızı noktalarla gösterilir.

İstasyonun adını görmek için fareyi noktanın üzerinde gezdirin.

Sonrasında hava gözlem ve tahminlerini görmek için tıklayın.

Haritayı değiştirmek için: yaklaştırmak için siyah artı işaretli yeşil düğmeye ve uzaklaştırmak için de eksi işaretli düğmeye hızla tıklayın; bitişik haritalar için yeşil okları kullanın.


METAR-TAF: